sensor_id;sensor_type;location;lat;lon;timestamp;pressure;altitude;pressure_sealevel;temperature;humidity
25658;BME280;13517;59.320;18.042;2024-02-23T00:00:52;98400.72;;;3.20;100.00
25658;BME280;13517;59.320;18.042;2024-02-23T00:03:18;98416.25;;;3.26;100.00
25658;BME280;13517;59.320;18.042;2024-02-23T00:05:45;98427.25;;;3.34;100.00
25658;BME280;13517;59.320;18.042;2024-02-23T00:08:11;98430.91;;;3.33;100.00
25658;BME280;13517;59.320;18.042;2024-02-23T00:10:36;98343.50;;;2.86;100.00
25658;BME280;13517;59.320;18.042;2024-02-23T00:13:03;98397.59;;;3.26;100.00
25658;BME280;13517;59.320;18.042;2024-02-23T00:15:29;98394.91;;;3.26;100.00
25658;BME280;13517;59.320;18.042;2024-02-23T00:17:55;98367.09;;;3.17;100.00
25658;BME280;13517;59.320;18.042;2024-02-23T00:20:21;98345.78;;;3.04;100.00
25658;BME280;13517;59.320;18.042;2024-02-23T00:22:48;98390.75;;;3.35;100.00
25658;BME280;13517;59.320;18.042;2024-02-23T00:25:14;98373.47;;;3.27;100.00
25658;BME280;13517;59.320;18.042;2024-02-23T00:27:39;98391.72;;;3.34;100.00
25658;BME280;13517;59.320;18.042;2024-02-23T00:30:07;98381.56;;;3.39;100.00
25658;BME280;13517;59.320;18.042;2024-02-23T00:32:33;98382.41;;;3.39;100.00
25658;BME280;13517;59.320;18.042;2024-02-23T00:34:59;98377.06;;;3.39;100.00
25658;BME280;13517;59.320;18.042;2024-02-23T00:37:25;98369.19;;;3.38;100.00
25658;BME280;13517;59.320;18.042;2024-02-23T00:39:51;98351.69;;;3.34;100.00
25658;BME280;13517;59.320;18.042;2024-02-23T00:42:17;98353.91;;;3.40;100.00
25658;BME280;13517;59.320;18.042;2024-02-23T00:44:44;98303.44;;;3.12;100.00
25658;BME280;13517;59.320;18.042;2024-02-23T00:47:10;98344.81;;;3.43;100.00
25658;BME280;13517;59.320;18.042;2024-02-23T00:49:36;98321.19;;;3.25;100.00
25658;BME280;13517;59.320;18.042;2024-02-23T00:52:02;98346.41;;;3.45;100.00
25658;BME280;13517;59.320;18.042;2024-02-23T00:54:28;98306.41;;;3.32;100.00
25658;BME280;13517;59.320;18.042;2024-02-23T00:56:54;98309.53;;;3.26;100.00
25658;BME280;13517;59.320;18.042;2024-02-23T00:59:20;98317.63;;;3.37;100.00
25658;BME280;13517;59.320;18.042;2024-02-23T01:01:46;98304.72;;;3.31;100.00
25658;BME280;13517;59.320;18.042;2024-02-23T01:04:12;98280.44;;;3.23;100.00
25658;BME280;13517;59.320;18.042;2024-02-23T01:06:38;98297.13;;;3.38;100.00
25658;BME280;13517;59.320;18.042;2024-02-23T01:09:04;98286.63;;;3.23;100.00
25658;BME280;13517;59.320;18.042;2024-02-23T01:11:30;98297.41;;;3.46;100.00
25658;BME280;13517;59.320;18.042;2024-02-23T01:13:56;98307.56;;;3.41;100.00
25658;BME280;13517;59.320;18.042;2024-02-23T01:16:22;98274.41;;;3.32;100.00
25658;BME280;13517;59.320;18.042;2024-02-23T01:18:48;98298.25;;;3.47;100.00
25658;BME280;13517;59.320;18.042;2024-02-23T01:21:14;98291.97;;;3.48;100.00
25658;BME280;13517;59.320;18.042;2024-02-23T01:23:41;98276.88;;;3.47;100.00
25658;BME280;13517;59.320;18.042;2024-02-23T01:26:07;98274.22;;;3.47;100.00
25658;BME280;13517;59.320;18.042;2024-02-23T01:28:33;98265.38;;;3.46;100.00
25658;BME280;13517;59.320;18.042;2024-02-23T01:31:00;98255.53;;;3.47;100.00
25658;BME280;13517;59.320;18.042;2024-02-23T01:33:26;98215.09;;;3.29;100.00
25658;BME280;13517;59.320;18.042;2024-02-23T01:35:52;98224.00;;;3.40;100.00
25658;BME280;13517;59.320;18.042;2024-02-23T01:38:17;98113.41;;;2.73;100.00
25658;BME280;13517;59.320;18.042;2024-02-23T01:40:47;98199.84;;;3.31;100.00
25658;BME280;13517;59.320;18.042;2024-02-23T01:43:13;98226.19;;;3.47;100.00
25658;BME280;13517;59.320;18.042;2024-02-23T01:45:40;98218.06;;;3.37;100.00
25658;BME280;13517;59.320;18.042;2024-02-23T01:48:07;98230.56;;;3.48;100.00
25658;BME280;13517;59.320;18.042;2024-02-23T01:50:33;98229.97;;;3.44;100.00
25658;BME280;13517;59.320;18.042;2024-02-23T01:53:01;98219.91;;;3.48;100.00
25658;BME280;13517;59.320;18.042;2024-02-23T01:55:28;98213.81;;;3.46;100.00
25658;BME280;13517;59.320;18.042;2024-02-23T01:57:54;98210.31;;;3.45;100.00
25658;BME280;13517;59.320;18.042;2024-02-23T02:00:21;98209.34;;;3.46;100.00
25658;BME280;13517;59.320;18.042;2024-02-23T02:02:48;98190.16;;;3.41;100.00
25658;BME280;13517;59.320;18.042;2024-02-23T02:05:14;98188.81;;;3.47;100.00
25658;BME280;13517;59.320;18.042;2024-02-23T02:07:41;98138.53;;;3.18;100.00
25658;BME280;13517;59.320;18.042;2024-02-23T02:10:10;98131.28;;;3.20;100.00
25658;BME280;13517;59.320;18.042;2024-02-23T02:12:36;98185.22;;;3.48;100.00
25658;BME280;13517;59.320;18.042;2024-02-23T02:15:03;98132.13;;;3.20;100.00
25658;BME280;13517;59.320;18.042;2024-02-23T02:17:29;98153.88;;;3.38;100.00
25658;BME280;13517;59.320;18.042;2024-02-23T02:19:56;98142.72;;;3.33;100.00
25658;BME280;13517;59.320;18.042;2024-02-23T02:22:24;98180.59;;;3.50;100.00
25658;BME280;13517;59.320;18.042;2024-02-23T02:24:50;98151.69;;;3.44;100.00
25658;BME280;13517;59.320;18.042;2024-02-23T02:27:16;98177.56;;;3.54;100.00
25658;BME280;13517;59.320;18.042;2024-02-23T02:29:42;98189.22;;;3.53;100.00
25658;BME280;13517;59.320;18.042;2024-02-23T02:32:08;98165.09;;;3.55;100.00
25658;BME280;13517;59.320;18.042;2024-02-23T02:34:34;98156.31;;;3.53;100.00
25658;BME280;13517;59.320;18.042;2024-02-23T02:37:00;98127.06;;;3.40;100.00
25658;BME280;13517;59.320;18.042;2024-02-23T02:39:27;98144.69;;;3.54;100.00
25658;BME280;13517;59.320;18.042;2024-02-23T02:41:54;98130.59;;;3.52;100.00
25658;BME280;13517;59.320;18.042;2024-02-23T02:44:21;98112.88;;;3.39;100.00
25658;BME280;13517;59.320;18.042;2024-02-23T02:46:47;98094.91;;;3.30;100.00
25658;BME280;13517;59.320;18.042;2024-02-23T02:49:13;98103.91;;;3.40;100.00
25658;BME280;13517;59.320;18.042;2024-02-23T02:51:39;98119.56;;;3.57;100.00
25658;BME280;13517;59.320;18.042;2024-02-23T02:54:06;98117.66;;;3.59;100.00
25658;BME280;13517;59.320;18.042;2024-02-23T02:56:31;98077.47;;;3.37;100.00
25658;BME280;13517;59.320;18.042;2024-02-23T02:58:58;98113.16;;;3.59;100.00
25658;BME280;13517;59.320;18.042;2024-02-23T03:01:24;98113.88;;;3.61;100.00
25658;BME280;13517;59.320;18.042;2024-02-23T03:03:50;98084.41;;;3.51;100.00
25658;BME280;13517;59.320;18.042;2024-02-23T03:06:17;98097.84;;;3.61;100.00
25658;BME280;13517;59.320;18.042;2024-02-23T03:08:43;98093.38;;;3.62;100.00
25658;BME280;13517;59.320;18.042;2024-02-23T03:11:09;98101.63;;;3.59;100.00
25658;BME280;13517;59.320;18.042;2024-02-23T03:13:35;98070.19;;;3.51;100.00
25658;BME280;13517;59.320;18.042;2024-02-23T03:16:01;98054.44;;;3.48;100.00
25658;BME280;13517;59.320;18.042;2024-02-23T03:18:27;98071.41;;;3.58;100.00
25658;BME280;13517;59.320;18.042;2024-02-23T03:20:53;98057.09;;;3.59;100.00
25658;BME280;13517;59.320;18.042;2024-02-23T03:23:20;98044.22;;;3.53;100.00
25658;BME280;13517;59.320;18.042;2024-02-23T03:25:46;98058.78;;;3.60;100.00
25658;BME280;13517;59.320;18.042;2024-02-23T03:28:12;98037.91;;;3.54;100.00
25658;BME280;13517;59.320;18.042;2024-02-23T03:30:38;98028.22;;;3.53;100.00
25658;BME280;13517;59.320;18.042;2024-02-23T03:33:04;97989.19;;;3.40;100.00
25658;BME280;13517;59.320;18.042;2024-02-23T03:35:30;98017.66;;;3.63;100.00
25658;BME280;13517;59.320;18.042;2024-02-23T03:37:57;98009.91;;;3.60;100.00
25658;BME280;13517;59.320;18.042;2024-02-23T03:40:22;98014.00;;;3.64;100.00
25658;BME280;13517;59.320;18.042;2024-02-23T03:42:48;98014.16;;;3.62;100.00
25658;BME280;13517;59.320;18.042;2024-02-23T03:45:15;98014.00;;;3.64;100.00
25658;BME280;13517;59.320;18.042;2024-02-23T03:47:41;97998.38;;;3.59;100.00
25658;BME280;13517;59.320;18.042;2024-02-23T03:50:08;97998.25;;;3.61;100.00
25658;BME280;13517;59.320;18.042;2024-02-23T03:52:34;97997.66;;;3.57;100.00
25658;BME280;13517;59.320;18.042;2024-02-23T03:55:00;97999.69;;;3.65;100.00
25658;BME280;13517;59.320;18.042;2024-02-23T03:57:26;97995.59;;;3.61;100.00
25658;BME280;13517;59.320;18.042;2024-02-23T03:59:53;98000.31;;;3.57;100.00
25658;BME280;13517;59.320;18.042;2024-02-23T04:02:20;98017.28;;;3.67;100.00
25658;BME280;13517;59.320;18.042;2024-02-23T04:04:48;98004.06;;;3.66;100.00
25658;BME280;13517;59.320;18.042;2024-02-23T04:07:14;97980.91;;;3.55;100.00
25658;BME280;13517;59.320;18.042;2024-02-23T04:09:41;97993.41;;;3.66;100.00
25658;BME280;13517;59.320;18.042;2024-02-23T04:12:06;97980.06;;;3.66;100.00
25658;BME280;13517;59.320;18.042;2024-02-23T04:14:35;97977.50;;;3.64;100.00
25658;BME280;13517;59.320;18.042;2024-02-23T04:17:04;97993.25;;;3.67;100.00
25658;BME280;13517;59.320;18.042;2024-02-23T04:19:31;97998.47;;;3.69;100.00
25658;BME280;13517;59.320;18.042;2024-02-23T04:21:57;97910.59;;;3.22;100.00
25658;BME280;13517;59.320;18.042;2024-02-23T04:24:23;97985.03;;;3.71;100.00
25658;BME280;13517;59.320;18.042;2024-02-23T04:26:50;97944.75;;;3.51;100.00
25658;BME280;13517;59.320;18.042;2024-02-23T04:29:16;97982.22;;;3.72;100.00
25658;BME280;13517;59.320;18.042;2024-02-23T04:31:43;97944.97;;;3.59;100.00
25658;BME280;13517;59.320;18.042;2024-02-23T04:34:09;97965.34;;;3.72;100.00
25658;BME280;13517;59.320;18.042;2024-02-23T04:36:35;97968.03;;;3.72;100.00
25658;BME280;13517;59.320;18.042;2024-02-23T04:39:01;97921.22;;;3.56;100.00
25658;BME280;13517;59.320;18.042;2024-02-23T04:41:28;97865.00;;;3.13;100.00
25658;BME280;13517;59.320;18.042;2024-02-23T04:43:54;97922.44;;;3.52;100.00
25658;BME280;13517;59.320;18.042;2024-02-23T04:46:25;97947.63;;;3.71;100.00
25658;BME280;13517;59.320;18.042;2024-02-23T04:48:51;97935.16;;;3.60;100.00
25658;BME280;13517;59.320;18.042;2024-02-23T04:51:17;97915.41;;;3.51;100.00
25658;BME280;13517;59.320;18.042;2024-02-23T04:53:42;97846.72;;;3.09;100.00
25658;BME280;13517;59.320;18.042;2024-02-23T04:56:08;97936.97;;;3.71;100.00
25658;BME280;13517;59.320;18.042;2024-02-23T04:58:34;97942.19;;;3.72;100.00
25658;BME280;13517;59.320;18.042;2024-02-23T05:01:00;97933.59;;;3.68;100.00
25658;BME280;13517;59.320;18.042;2024-02-23T05:03:26;97913.22;;;3.56;100.00
25658;BME280;13517;59.320;18.042;2024-02-23T05:05:52;97917.09;;;3.52;100.00
25658;BME280;13517;59.320;18.042;2024-02-23T05:08:21;97823.94;;;2.93;100.00
25658;BME280;13517;59.320;18.042;2024-02-23T05:10:52;97918.66;;;3.66;100.00
25658;BME280;13517;59.320;18.042;2024-02-23T05:13:18;97920.69;;;3.74;100.00
25658;BME280;13517;59.320;18.042;2024-02-23T05:15:45;97899.00;;;3.67;100.00
25658;BME280;13517;59.320;18.042;2024-02-23T05:18:11;97888.81;;;3.61;100.00
25658;BME280;13517;59.320;18.042;2024-02-23T05:20:37;97894.75;;;3.64;100.00
25658;BME280;13517;59.320;18.042;2024-02-23T05:23:02;97814.19;;;3.15;100.00
25658;BME280;13517;59.320;18.042;2024-02-23T05:25:28;97862.53;;;3.45;100.00
25658;BME280;13517;59.320;18.042;2024-02-23T05:27:54;97914.50;;;3.73;100.00
25658;BME280;13517;59.320;18.042;2024-02-23T05:30:20;97892.56;;;3.58;100.00
25658;BME280;13517;59.320;18.042;2024-02-23T05:32:47;97900.69;;;3.68;100.00
25658;BME280;13517;59.320;18.042;2024-02-23T05:35:13;97875.94;;;3.66;100.00
25658;BME280;13517;59.320;18.042;2024-02-23T05:37:41;97883.44;;;3.72;100.00
25658;BME280;13517;59.320;18.042;2024-02-23T05:40:07;97863.91;;;3.72;100.00
25658;BME280;13517;59.320;18.042;2024-02-23T05:42:39;97855.00;;;3.50;100.00
25658;BME280;13517;59.320;18.042;2024-02-23T05:45:06;97869.94;;;3.74;100.00
25658;BME280;13517;59.320;18.042;2024-02-23T05:47:38;97866.47;;;3.62;100.00
25658;BME280;13517;59.320;18.042;2024-02-23T05:50:05;97878.94;;;3.73;100.00
25658;BME280;13517;59.320;18.042;2024-02-23T05:52:32;97826.13;;;3.55;100.00
25658;BME280;13517;59.320;18.042;2024-02-23T05:54:58;97842.28;;;3.75;100.00
25658;BME280;13517;59.320;18.042;2024-02-23T05:57:28;97856.59;;;3.74;100.00
25658;BME280;13517;59.320;18.042;2024-02-23T05:59:54;97822.47;;;3.56;100.00
25658;BME280;13517;59.320;18.042;2024-02-23T06:02:21;97832.66;;;3.62;100.00
25658;BME280;13517;59.320;18.042;2024-02-23T06:04:47;97831.91;;;3.60;100.00
25658;BME280;13517;59.320;18.042;2024-02-23T06:07:13;97864.50;;;3.75;100.00
25658;BME280;13517;59.320;18.042;2024-02-23T06:09:45;97840.50;;;3.64;100.00
25658;BME280;13517;59.320;18.042;2024-02-23T06:12:11;97854.31;;;3.69;100.00
25658;BME280;13517;59.320;18.042;2024-02-23T06:14:39;97791.25;;;3.35;100.00
25658;BME280;13517;59.320;18.042;2024-02-23T06:17:05;97741.72;;;3.10;100.00
25658;BME280;13517;59.320;18.042;2024-02-23T06:19:33;97642.63;;;2.61;100.00
25658;BME280;13517;59.320;18.042;2024-02-23T06:22:00;97638.53;;;2.56;100.00
25658;BME280;13517;59.320;18.042;2024-02-23T06:24:26;97745.44;;;3.19;100.00
25658;BME280;13517;59.320;18.042;2024-02-23T06:26:52;97752.19;;;3.34;100.00
25658;BME280;13517;59.320;18.042;2024-02-23T06:29:21;97745.53;;;3.29;100.00
25658;BME280;13517;59.320;18.042;2024-02-23T06:31:48;97818.41;;;3.73;100.00
25658;BME280;13517;59.320;18.042;2024-02-23T06:34:15;97814.41;;;3.67;100.00
25658;BME280;13517;59.320;18.042;2024-02-23T06:36:42;97831.09;;;3.81;100.00
25658;BME280;13517;59.320;18.042;2024-02-23T06:39:07;97836.19;;;3.84;100.00
25658;BME280;13517;59.320;18.042;2024-02-23T06:41:33;97823.81;;;3.83;100.00
25658;BME280;13517;59.320;18.042;2024-02-23T06:44:00;97814.41;;;3.67;100.00
25658;BME280;13517;59.320;18.042;2024-02-23T06:46:26;97802.22;;;3.75;100.00
25658;BME280;13517;59.320;18.042;2024-02-23T06:48:52;97813.38;;;3.80;100.00
25658;BME280;13517;59.320;18.042;2024-02-23T06:51:19;97803.22;;;3.74;100.00
25658;BME280;13517;59.320;18.042;2024-02-23T06:53:47;97809.72;;;3.81;100.00
25658;BME280;13517;59.320;18.042;2024-02-23T06:56:13;97815.06;;;3.81;100.00
25658;BME280;13517;59.320;18.042;2024-02-23T06:58:40;97718.84;;;3.29;100.00
25658;BME280;13517;59.320;18.042;2024-02-23T07:01:06;97804.38;;;3.81;100.00
25658;BME280;13517;59.320;18.042;2024-02-23T07:03:37;97749.03;;;3.62;100.00
25658;BME280;13517;59.320;18.042;2024-02-23T07:06:03;97775.59;;;3.85;100.00
25658;BME280;13517;59.320;18.042;2024-02-23T07:08:29;97744.56;;;3.62;100.00
25658;BME280;13517;59.320;18.042;2024-02-23T07:10:55;97740.91;;;3.63;100.00
25658;BME280;13517;59.320;18.042;2024-02-23T07:13:22;97748.59;;;3.78;100.00
25658;BME280;13517;59.320;18.042;2024-02-23T07:15:48;97768.19;;;3.88;100.00
25658;BME280;13517;59.320;18.042;2024-02-23T07:18:14;97747.63;;;3.79;100.00
25658;BME280;13517;59.320;18.042;2024-02-23T07:20:41;97749.38;;;3.90;100.00
25658;BME280;13517;59.320;18.042;2024-02-23T07:23:07;97683.28;;;3.39;100.00
25658;BME280;13517;59.320;18.042;2024-02-23T07:25:35;97763.44;;;3.92;100.00
25658;BME280;13517;59.320;18.042;2024-02-23T07:28:01;97771.44;;;3.92;100.00
25658;BME280;13517;59.320;18.042;2024-02-23T07:30:27;97772.53;;;3.89;100.00
25658;BME280;13517;59.320;18.042;2024-02-23T07:32:53;97778.63;;;3.91;100.00
25658;BME280;13517;59.320;18.042;2024-02-23T07:35:20;97755.28;;;3.93;100.00
25658;BME280;13517;59.320;18.042;2024-02-23T07:37:47;97753.59;;;3.92;100.00
25658;BME280;13517;59.320;18.042;2024-02-23T07:40:13;97719.41;;;3.86;100.00
25658;BME280;13517;59.320;18.042;2024-02-23T07:42:42;97749.97;;;3.93;100.00
25658;BME280;13517;59.320;18.042;2024-02-23T07:45:08;97773.00;;;3.94;100.00
25658;BME280;13517;59.320;18.042;2024-02-23T07:47:34;97717.53;;;3.77;100.00
25658;BME280;13517;59.320;18.042;2024-02-23T07:50:01;97738.38;;;3.83;100.00
25658;BME280;13517;59.320;18.042;2024-02-23T07:52:30;97661.69;;;3.43;100.00
25658;BME280;13517;59.320;18.042;2024-02-23T07:54:56;97714.41;;;3.72;100.00
25658;BME280;13517;59.320;18.042;2024-02-23T07:57:23;97679.09;;;3.47;100.00
25658;BME280;13517;59.320;18.042;2024-02-23T07:59:50;97742.41;;;3.99;100.00
25658;BME280;13517;59.320;18.042;2024-02-23T08:02:16;97727.44;;;3.86;100.00
25658;BME280;13517;59.320;18.042;2024-02-23T08:04:42;97730.69;;;3.90;100.00
25658;BME280;13517;59.320;18.042;2024-02-23T08:07:09;97745.13;;;3.87;100.00
25658;BME280;13517;59.320;18.042;2024-02-23T08:09:35;97720.97;;;3.67;100.00
25658;BME280;13517;59.320;18.042;2024-02-23T08:12:01;97669.28;;;3.47;100.00
25658;BME280;13517;59.320;18.042;2024-02-23T08:14:27;97749.84;;;3.95;100.00
25658;BME280;13517;59.320;18.042;2024-02-23T08:16:54;97744.16;;;3.88;100.00
25658;BME280;13517;59.320;18.042;2024-02-23T08:19:20;97739.59;;;3.79;100.00
25658;BME280;13517;59.320;18.042;2024-02-23T08:21:46;97751.00;;;3.81;100.00
25658;BME280;13517;59.320;18.042;2024-02-23T08:24:12;97776.25;;;3.98;100.00
25658;BME280;13517;59.320;18.042;2024-02-23T08:26:38;97784.56;;;3.95;100.00
25658;BME280;13517;59.320;18.042;2024-02-23T08:29:03;97792.41;;;3.97;100.00
25658;BME280;13517;59.320;18.042;2024-02-23T08:31:30;97784.03;;;4.01;100.00
25658;BME280;13517;59.320;18.042;2024-02-23T08:33:56;97685.22;;;3.37;100.00
25658;BME280;13517;59.320;18.042;2024-02-23T08:36:22;97760.50;;;3.95;100.00
25658;BME280;13517;59.320;18.042;2024-02-23T08:38:51;97746.81;;;3.88;100.00
25658;BME280;13517;59.320;18.042;2024-02-23T08:41:17;97796.31;;;4.14;100.00
25658;BME280;13517;59.320;18.042;2024-02-23T08:43:43;97791.44;;;4.19;100.00
25658;BME280;13517;59.320;18.042;2024-02-23T08:46:10;97779.13;;;4.28;100.00
25658;BME280;13517;59.320;18.042;2024-02-23T08:48:36;97779.41;;;4.34;100.00
25658;BME280;13517;59.320;18.042;2024-02-23T08:51:03;97717.38;;;4.00;100.00
25658;BME280;13517;59.320;18.042;2024-02-23T08:53:29;97775.09;;;4.43;100.00
25658;BME280;13517;59.320;18.042;2024-02-23T08:55:56;97773.28;;;4.44;100.00
25658;BME280;13517;59.320;18.042;2024-02-23T08:58:22;97788.19;;;4.46;100.00
25658;BME280;13517;59.320;18.042;2024-02-23T09:00:49;97767.31;;;4.30;100.00
25658;BME280;13517;59.320;18.042;2024-02-23T09:03:14;97700.84;;;4.06;100.00
25658;BME280;13517;59.320;18.042;2024-02-23T09:05:41;97755.25;;;4.36;100.00
25658;BME280;13517;59.320;18.042;2024-02-23T09:08:06;97765.56;;;4.50;100.00
25658;BME280;13517;59.320;18.042;2024-02-23T09:10:33;97771.63;;;4.53;100.00
25658;BME280;13517;59.320;18.042;2024-02-23T09:12:59;97781.78;;;4.59;100.00
25658;BME280;13517;59.320;18.042;2024-02-23T09:15:25;97760.63;;;4.46;100.00
25658;BME280;13517;59.320;18.042;2024-02-23T09:17:51;97804.31;;;4.66;100.00
25658;BME280;13517;59.320;18.042;2024-02-23T09:20:16;97807.41;;;4.61;100.00
25658;BME280;13517;59.320;18.042;2024-02-23T09:22:43;97818.09;;;4.61;100.00
25658;BME280;13517;59.320;18.042;2024-02-23T09:25:09;97829.13;;;4.68;100.00
25658;BME280;13517;59.320;18.042;2024-02-23T09:27:36;97836.59;;;4.74;100.00
25658;BME280;13517;59.320;18.042;2024-02-23T09:30:13;97840.97;;;4.75;100.00
25658;BME280;13517;59.320;18.042;2024-02-23T09:32:41;97849.41;;;4.81;100.00
25658;BME280;13517;59.320;18.042;2024-02-23T09:35:07;97854.66;;;4.82;100.00
25658;BME280;13517;59.320;18.042;2024-02-23T09:37:36;97826.25;;;4.60;100.00
25658;BME280;13517;59.320;18.042;2024-02-23T09:40:02;97860.44;;;4.87;100.00
25658;BME280;13517;59.320;18.042;2024-02-23T09:42:28;97811.00;;;4.50;100.00
25658;BME280;13517;59.320;18.042;2024-02-23T09:44:59;97862.19;;;4.98;100.00
25658;BME280;13517;59.320;18.042;2024-02-23T09:47:28;97868.34;;;4.99;100.00
25658;BME280;13517;59.320;18.042;2024-02-23T09:49:55;97858.09;;;5.04;100.00
25658;BME280;13517;59.320;18.042;2024-02-23T09:52:21;97813.41;;;4.85;100.00
25658;BME280;13517;59.320;18.042;2024-02-23T09:54:50;97804.31;;;4.66;100.00
25658;BME280;13517;59.320;18.042;2024-02-23T09:57:17;97799.31;;;4.73;100.00
25658;BME280;13517;59.320;18.042;2024-02-23T09:59:47;97907.78;;;5.38;100.00
25658;BME280;13517;59.320;18.042;2024-02-23T10:02:17;97845.06;;;5.11;100.00
25658;BME280;13517;59.320;18.042;2024-02-23T10:04:44;97895.84;;;5.42;100.00
25658;BME280;13517;59.320;18.042;2024-02-23T10:07:10;97895.16;;;5.50;100.00
25658;BME280;13517;59.320;18.042;2024-02-23T10:09:36;97835.19;;;5.11;100.00
25658;BME280;13517;59.320;18.042;2024-02-23T10:12:02;97810.38;;;4.99;100.00
25658;BME280;13517;59.320;18.042;2024-02-23T10:14:28;97934.13;;;5.83;100.00
25658;BME280;13517;59.320;18.042;2024-02-23T10:16:55;97945.84;;;5.92;100.00
25658;BME280;13517;59.320;18.042;2024-02-23T10:19:22;97953.78;;;6.04;100.00
25658;BME280;13517;59.320;18.042;2024-02-23T10:21:48;97942.94;;;6.05;100.00
25658;BME280;13517;59.320;18.042;2024-02-23T10:24:17;97894.19;;;5.61;100.00
25658;BME280;13517;59.320;18.042;2024-02-23T10:26:43;97934.00;;;5.85;100.00
25658;BME280;13517;59.320;18.042;2024-02-23T10:29:10;97938.19;;;5.88;100.00
25658;BME280;13517;59.320;18.042;2024-02-23T10:31:36;97950.91;;;5.85;100.00
25658;BME280;13517;59.320;18.042;2024-02-23T10:34:09;97956.25;;;5.85;100.00
25658;BME280;13517;59.320;18.042;2024-02-23T10:36:41;97975.47;;;6.00;100.00
25658;BME280;13517;59.320;18.042;2024-02-23T10:39:11;97982.22;;;5.95;100.00
25658;BME280;13517;59.320;18.042;2024-02-23T10:41:46;97979.91;;;5.80;100.00
25658;BME280;13517;59.320;18.042;2024-02-23T10:44:13;97956.78;;;5.69;100.00
25658;BME280;13517;59.320;18.042;2024-02-23T10:46:41;97992.06;;;5.84;100.00
25658;BME280;13517;59.320;18.042;2024-02-23T10:49:07;97880.00;;;5.19;100.00
25658;BME280;13517;59.320;18.042;2024-02-23T10:51:33;97988.25;;;5.77;100.00
25658;BME280;13517;59.320;18.042;2024-02-23T10:53:59;98013.78;;;5.81;100.00
25658;BME280;13517;59.320;18.042;2024-02-23T10:56:25;98007.28;;;5.84;100.00
25658;BME280;13517;59.320;18.042;2024-02-23T10:58:52;97967.50;;;5.69;100.00
25658;BME280;13517;59.320;18.042;2024-02-23T11:01:19;97999.06;;;5.66;100.00
25658;BME280;13517;59.320;18.042;2024-02-23T11:03:46;98024.22;;;5.84;100.00
25658;BME280;13517;59.320;18.042;2024-02-23T11:06:15;98009.97;;;5.74;100.00
25658;BME280;13517;59.320;18.042;2024-02-23T11:08:46;98038.59;;;5.83;100.00
25658;BME280;13517;59.320;18.042;2024-02-23T11:11:15;98042.84;;;5.86;100.00
25658;BME280;13517;59.320;18.042;2024-02-23T11:13:43;97992.53;;;5.58;100.00
25658;BME280;13517;59.320;18.042;2024-02-23T11:16:09;97966.97;;;5.35;100.00
25658;BME280;13517;59.320;18.042;2024-02-23T11:18:36;98060.47;;;5.89;100.00
25658;BME280;13517;59.320;18.042;2024-02-23T11:21:03;97879.69;;;4.81;100.00
25658;BME280;13517;59.320;18.042;2024-02-23T11:23:43;97978.69;;;5.43;100.00
25658;BME280;13517;59.320;18.042;2024-02-23T11:26:12;98042.09;;;5.74;100.00
25658;BME280;13517;59.320;18.042;2024-02-23T11:28:56;97899.19;;;4.93;100.00
25658;BME280;13517;59.320;18.042;2024-02-23T11:31:29;98049.56;;;5.80;100.00
25658;BME280;13517;59.320;18.042;2024-02-23T11:33:57;97888.72;;;4.80;100.00
25658;BME280;13517;59.320;18.042;2024-02-23T11:36:34;97893.66;;;4.85;100.00
25658;BME280;13517;59.320;18.042;2024-02-23T11:39:01;97996.31;;;5.46;100.00
25658;BME280;13517;59.320;18.042;2024-02-23T11:41:28;97928.25;;;5.08;100.00
25658;BME280;13517;59.320;18.042;2024-02-23T11:43:55;98070.75;;;5.83;100.00
25658;BME280;13517;59.320;18.042;2024-02-23T11:46:21;98085.75;;;5.96;100.00
25658;BME280;13517;59.320;18.042;2024-02-23T11:48:48;97992.09;;;5.22;100.00
25658;BME280;13517;59.320;18.042;2024-02-23T11:51:21;98010.28;;;5.50;100.00
25658;BME280;13517;59.320;18.042;2024-02-23T11:53:47;98041.19;;;5.64;100.00
25658;BME280;13517;59.320;18.042;2024-02-23T11:56:16;98048.94;;;5.57;100.00
25658;BME280;13517;59.320;18.042;2024-02-23T11:58:42;97945.44;;;4.84;100.00
25658;BME280;13517;59.320;18.042;2024-02-23T12:01:08;97991.69;;;4.96;100.00
25658;BME280;13517;59.320;18.042;2024-02-23T12:03:34;98142.38;;;5.91;100.00
25658;BME280;13517;59.320;18.042;2024-02-23T12:06:01;98012.16;;;5.07;100.00
25658;BME280;13517;59.320;18.042;2024-02-23T12:08:30;98076.78;;;5.44;100.00
25658;BME280;13517;59.320;18.042;2024-02-23T12:11:04;98158.47;;;5.91;100.00
25658;BME280;13517;59.320;18.042;2024-02-23T12:13:30;98150.59;;;5.90;100.00
25658;BME280;13517;59.320;18.042;2024-02-23T12:15:55;98149.59;;;5.91;100.00
25658;BME280;13517;59.320;18.042;2024-02-23T12:18:22;98109.25;;;5.61;100.00
25658;BME280;13517;59.320;18.042;2024-02-23T12:21:00;98079.69;;;5.41;100.00
25658;BME280;13517;59.320;18.042;2024-02-23T12:23:37;98166.72;;;5.78;100.00
25658;BME280;13517;59.320;18.042;2024-02-23T12:26:03;98178.59;;;5.85;100.00
25658;BME280;13517;59.320;18.042;2024-02-23T12:28:30;98197.81;;;5.91;100.00
25658;BME280;13517;59.320;18.042;2024-02-23T12:31:02;98120.97;;;5.39;100.00
25658;BME280;13517;59.320;18.042;2024-02-23T12:33:29;98209.78;;;5.86;100.00
25658;BME280;13517;59.320;18.042;2024-02-23T12:35:58;98202.47;;;5.89;100.00
25658;BME280;13517;59.320;18.042;2024-02-23T12:38:27;98206.66;;;5.81;100.00
25658;BME280;13517;59.320;18.042;2024-02-23T12:40:53;98177.91;;;5.62;100.00
25658;BME280;13517;59.320;18.042;2024-02-23T12:43:19;98229.63;;;5.84;100.00
25658;BME280;13517;59.320;18.042;2024-02-23T12:45:54;98238.53;;;5.84;100.00
25658;BME280;13517;59.320;18.042;2024-02-23T12:48:23;98236.84;;;5.83;100.00